Time;durP1;ratioP1;P1;durP2;ratioP2;P2;SDS_P1;SDS_P2;PMS_P1;PMS_P2;Temp;Humidity;BMP_temperature;BMP_pressure;BME280_temperature;BME280_humidity;BME280_pressure;Samples;Min_cycle;Max_cycle;Signal;HPM_P1;HPM_P2
2023/03/11 00:01:41;;;;;;;6.28;2.15;;;-0.40;99.90;;;;;;4993942;28;20037;-81
2023/03/11 00:04:07;;;;;;;7.32;2.30;;;-0.80;99.90;;;;;;4958819;28;20038;-80
2023/03/11 00:06:36;;;;;;;5.35;2.67;;;-0.80;99.90;;;;;;4994976;28;20042;-80
2023/03/11 00:09:01;;;;;;;3.78;2.00;;;-0.80;99.90;;;;;;4973194;28;20061;-81
2023/03/11 00:11:27;;;;;;;8.25;2.22;;;-0.80;99.90;;;;;;5011788;28;20399;-81
2023/03/11 00:13:53;;;;;;;4.80;2.00;;;-0.80;99.90;;;;;;4977151;28;20046;-81
2023/03/11 00:16:19;;;;;;;3.75;2.10;;;-0.80;99.90;;;;;;4955525;28;20388;-81
2023/03/11 00:18:45;;;;;;;9.15;2.20;;;-0.80;99.90;;;;;;4988157;28;20042;-81
2023/03/11 00:21:15;;;;;;;6.93;2.58;;;-0.80;99.90;;;;;;4996188;28;20045;-81
2023/03/11 00:23:41;;;;;;;5.22;2.22;;;-0.80;99.90;;;;;;4985863;28;20062;-81
2023/03/11 00:26:07;;;;;;;5.68;2.35;;;-0.80;99.90;;;;;;4993504;28;20072;-81
2023/03/11 00:28:33;;;;;;;5.72;2.22;;;-0.80;99.90;;;;;;4975337;28;20074;-80
2023/03/11 00:30:58;;;;;;;6.22;2.40;;;-0.80;99.90;;;;;;5003124;28;20038;-80
2023/03/11 00:33:24;;;;;;;9.93;2.30;;;-0.80;99.90;;;;;;4989879;28;21440;-80
2023/03/11 00:35:50;;;;;;;7.57;2.10;;;-0.70;99.90;;;;;;4977924;28;20046;-80
2023/03/11 00:38:16;;;;;;;7.10;2.53;;;-0.80;99.90;;;;;;4995872;28;20372;-80
2023/03/11 00:40:44;;;;;;;5.45;1.90;;;-0.70;99.90;;;;;;4994269;28;20037;-80
2023/03/11 00:43:10;;;;;;;7.45;2.55;;;-0.70;99.90;;;;;;4992062;28;20038;-80
2023/03/11 00:45:36;;;;;;;3.13;1.77;;;-0.70;99.90;;;;;;4987424;28;20049;-80
2023/03/11 00:48:03;;;;;;;10.07;2.47;;;0.10;99.90;;;;;;4991049;28;20156;-80
2023/03/11 00:50:32;;;;;;;7.63;2.35;;;-0.70;99.90;;;;;;4990480;28;20038;-80
2023/03/11 00:52:58;;;;;;;6.07;2.42;;;-0.60;99.90;;;;;;4992030;28;20081;-80
2023/03/11 00:55:28;;;;;;;7.85;2.08;;;-0.60;99.90;;;;;;4958929;28;20506;-80
2023/03/11 00:57:59;;;;;;;10.45;2.30;;;-0.60;99.90;;;;;;4994557;28;20096;-80
2023/03/11 01:00:26;;;;;;;9.60;2.47;;;-0.60;99.90;;;;;;4990538;28;20033;-80
2023/03/11 01:02:52;;;;;;;5.40;2.78;;;-0.70;99.90;;;;;;4988957;28;20046;-80
2023/03/11 01:05:21;;;;;;;6.40;2.20;;;-0.70;99.90;;;;;;4973275;28;20077;-80
2023/03/11 01:07:47;;;;;;;4.78;1.70;;;-0.10;99.90;;;;;;4988055;28;20049;-80
2023/03/11 01:10:13;;;;;;;9.07;3.05;;;-0.50;99.90;;;;;;4960613;28;20037;-80
2023/03/11 01:12:39;;;;;;;7.82;2.25;;;-0.10;99.90;;;;;;4959918;28;20042;-80
2023/03/11 01:15:07;;;;;;;4.78;2.10;;;-0.70;99.90;;;;;;4988250;28;20120;-80
2023/03/11 01:17:32;;;;;;;5.38;2.20;;;-0.70;99.90;;;;;;4991706;28;20042;-80
2023/03/11 01:19:58;;;;;;;3.22;1.73;;;-0.70;99.90;;;;;;4974384;28;20037;-80
2023/03/11 01:22:25;;;;;;;6.28;2.55;;;-0.70;99.90;;;;;;4977680;28;20078;-80
2023/03/11 01:24:51;;;;;;;6.15;1.98;;;-0.70;99.90;;;;;;4974859;28;20062;-79
2023/03/11 01:27:16;;;;;;;6.13;3.03;;;-0.70;99.90;;;;;;4981404;28;20069;-80
2023/03/11 01:29:42;;;;;;;5.90;2.00;;;-0.80;99.90;;;;;;4971300;28;20157;-80
2023/03/11 01:32:09;;;;;;;6.20;2.03;;;-0.10;99.90;;;;;;4992218;28;20101;-80
2023/03/11 01:34:34;;;;;;;4.25;2.47;;;-0.80;99.90;;;;;;4975370;28;20038;-80
2023/03/11 01:37:02;;;;;;;5.47;2.72;;;-0.80;99.90;;;;;;4973477;28;20065;-81
2023/03/11 01:39:28;;;;;;;10.35;2.25;;;-0.80;99.90;;;;;;4991900;28;20038;-80
2023/03/11 01:41:55;;;;;;;9.77;2.90;;;-0.80;99.90;;;;;;4986299;28;20502;-81
2023/03/11 01:44:21;;;;;;;4.30;1.92;;;-0.80;99.90;;;;;;4970739;28;20054;-80
2023/03/11 01:46:52;;;;;;;6.80;2.85;;;-0.80;99.90;;;;;;4987166;28;20039;-80
2023/03/11 01:49:22;;;;;;;6.10;2.47;;;-0.80;99.90;;;;;;4990440;28;20486;-80
2023/03/11 01:51:51;;;;;;;7.20;2.30;;;-0.80;99.90;;;;;;4973742;28;20316;-80
2023/03/11 01:54:26;;;;;;;6.22;1.67;;;-0.40;99.90;;;;;;4977272;28;20115;-80
2023/03/11 01:56:54;;;;;;;6.20;1.80;;;-0.80;99.90;;;;;;4991168;28;20045;-80
2023/03/11 01:59:28;;;;;;;4.68;2.33;;;-0.80;99.90;;;;;;4990142;28;20042;-80
2023/03/11 02:02:13;;;;;;;4.95;2.13;;;-0.80;99.90;;;;;;4989034;28;20050;-80
2023/03/11 02:04:40;;;;;;;3.25;1.80;;;-0.80;99.90;;;;;;4990008;28;20499;-80
2023/03/11 02:07:08;;;;;;;4.55;1.98;;;-0.80;99.90;;;;;;4987533;28;20530;-80
2023/03/11 02:09:34;;;;;;;7.45;2.22;;;-0.90;99.90;;;;;;4988833;28;20495;-80
2023/03/11 02:12:00;;;;;;;6.03;2.10;;;0.00;99.90;;;;;;4975751;28;20092;-80
2023/03/11 02:14:28;;;;;;;5.18;2.00;;;-0.80;99.90;;;;;;4990128;28;20121;-80
2023/03/11 02:16:54;;;;;;;9.75;2.35;;;-0.90;99.90;;;;;;4988822;28;20188;-80
2023/03/11 02:19:41;;;;;;;6.55;2.03;;;-0.90;99.90;;;;;;4987345;28;20038;-80
2023/03/11 02:22:09;;;;;;;10.95;2.10;;;-0.90;99.90;;;;;;5005287;28;20095;-80
2023/03/11 02:24:37;;;;;;;5.68;2.00;;;-0.90;99.90;;;;;;4990645;28;20029;-80
2023/03/11 02:27:10;;;;;;;5.82;1.58;;;-0.10;99.90;;;;;;4993358;28;20455;-81
2023/03/11 02:29:36;;;;;;;;;;;-0.90;99.90;;;;;;4991818;28;20929;-81
2023/03/11 02:32:06;;;;;;;7.45;2.13;;;-0.90;99.90;;;;;;4992882;28;19918;-81
2023/03/11 02:34:34;;;;;;;3.40;1.50;;;-0.90;99.90;;;;;;4973000;28;20112;-81
2023/03/11 02:37:04;;;;;;;5.60;1.88;;;-0.90;99.90;;;;;;4987378;28;20104;-81
2023/03/11 02:39:42;;;;;;;8.18;2.35;;;-0.90;99.90;;;;;;4973068;28;20042;-81
2023/03/11 02:42:23;;;;;;;7.38;2.38;;;-0.90;99.90;;;;;;4992952;28;20042;-81
2023/03/11 02:44:59;;;;;;;4.28;2.30;;;-0.90;99.90;;;;;;4972759;28;20078;-81
2023/03/11 02:47:25;;;;;;;3.95;1.65;;;-0.90;99.90;;;;;;4996278;28;20053;-81
2023/03/11 02:49:53;;;;;;;7.63;2.38;;;-0.90;99.90;;;;;;4982131;28;20034;-81
2023/03/11 02:52:19;;;;;;;4.53;1.90;;;-0.90;99.90;;;;;;4993096;28;20034;-81
2023/03/11 02:54:45;;;;;;;4.13;1.70;;;-0.90;99.90;;;;;;4990236;28;20050;-81
2023/03/11 02:57:11;;;;;;;6.80;2.15;;;-1.00;99.90;;;;;;4975925;28;20036;-81
2023/03/11 02:59:36;;;;;;;4.10;1.52;;;-1.00;99.90;;;;;;4980807;28;20561;-81
2023/03/11 03:02:03;;;;;;;6.90;1.85;;;-1.00;99.90;;;;;;4976241;28;20042;-81
2023/03/11 03:04:29;;;;;;;9.48;1.70;;;-1.10;99.90;;;;;;4990122;28;20579;-80
2023/03/11 03:06:55;;;;;;;4.68;1.80;;;-0.70;99.90;;;;;;4992415;28;20038;-81
2023/03/11 03:09:20;;;;;;;6.47;3.10;;;-0.60;99.90;;;;;;4975478;28;20049;-81
2023/03/11 03:11:46;;;;;;;4.35;1.77;;;-1.20;99.90;;;;;;4980108;28;20398;-81
2023/03/11 03:14:12;;;;;;;3.47;1.17;;;-1.30;99.90;;;;;;4979643;28;20034;-81
2023/03/11 03:16:38;;;;;;;7.28;2.17;;;-1.30;99.90;;;;;;4972551;28;20039;-81
2023/03/11 03:19:03;;;;;;;4.35;1.95;;;-1.40;99.90;;;;;;4976391;28;20045;-81
2023/03/11 03:21:29;;;;;;;6.45;2.40;;;-1.40;99.90;;;;;;4994288;28;20092;-81
2023/03/11 03:23:55;;;;;;;9.75;2.00;;;-1.50;99.90;;;;;;4979105;28;20085;-81
2023/03/11 03:26:20;;;;;;;3.75;1.70;;;-1.50;99.90;;;;;;4962234;28;20039;-81
2023/03/11 03:28:46;;;;;;;5.20;1.73;;;-1.60;99.90;;;;;;4974412;28;20215;-81
2023/03/11 03:31:12;;;;;;;8.60;1.98;;;-1.60;99.90;;;;;;4972555;28;20577;-81
2023/03/11 03:33:38;;;;;;;4.95;1.80;;;-1.60;99.90;;;;;;4976513;28;20045;-81
2023/03/11 03:36:12;;;;;;;3.85;1.80;;;-1.60;99.90;;;;;;4960975;28;20038;-81
2023/03/11 03:38:37;;;;;;;6.55;1.92;;;-1.70;99.90;;;;;;4990347;28;20040;-81
2023/03/11 03:41:03;;;;;;;4.88;2.20;;;-1.70;99.90;;;;;;4991140;28;20117;-81
2023/03/11 03:43:29;;;;;;;4.50;1.60;;;-1.70;99.90;;;;;;4978761;28;20038;-81
2023/03/11 03:46:00;;;;;;;5.63;1.75;;;-1.70;99.90;;;;;;4973243;28;20435;-81
2023/03/11 03:48:26;;;;;;;4.20;1.70;;;-1.80;99.90;;;;;;4989737;28;20476;-81
2023/03/11 03:50:52;;;;;;;1.60;1.30;;;-1.80;99.90;;;;;;4972952;28;20093;-81
2023/03/11 03:53:17;;;;;;;8.95;1.70;;;-1.90;99.90;;;;;;4977578;28;20042;-81
2023/03/11 03:55:43;;;;;;;4.18;1.58;;;-1.90;99.90;;;;;;4977555;28;20415;-82
2023/03/11 03:58:09;;;;;;;6.18;1.85;;;-2.00;99.90;;;;;;4960290;28;20057;-81
2023/03/11 04:00:35;;;;;;;6.60;1.98;;;-2.00;99.90;;;;;;4977031;28;20041;-81
2023/03/11 04:03:01;;;;;;;8.13;2.10;;;-2.10;99.90;;;;;;4993277;28;20034;-81
2023/03/11 04:05:26;;;;;;;5.88;2.03;;;-2.10;99.90;;;;;;4993570;28;20045;-81
2023/03/11 04:07:53;;;;;;;2.33;1.40;;;-2.20;99.90;;;;;;4997110;28;20041;-81
2023/03/11 04:10:19;;;;;;;3.72;1.80;;;-2.20;99.90;;;;;;4991672;28;20082;-81
2023/03/11 04:12:44;;;;;;;5.63;1.80;;;-2.30;99.90;;;;;;4977856;28;20084;-81
2023/03/11 04:15:11;;;;;;;6.45;1.80;;;-2.30;99.90;;;;;;4980297;28;20107;-81
2023/03/11 04:17:37;;;;;;;5.72;1.73;;;-2.40;99.90;;;;;;4990437;28;20046;-82
2023/03/11 04:20:06;;;;;;;3.83;1.80;;;-2.30;99.90;;;;;;4994773;28;20069;-81
2023/03/11 04:22:33;;;;;;;9.13;1.80;;;-2.40;99.90;;;;;;4978708;28;20038;-81
2023/03/11 04:24:58;;;;;;;5.38;1.88;;;-2.40;99.90;;;;;;4992524;28;20090;-81
2023/03/11 04:27:24;;;;;;;7.15;1.92;;;-2.50;99.90;;;;;;4973598;28;20046;-81
2023/03/11 04:29:50;;;;;;;4.35;1.50;;;-2.50;99.90;;;;;;4976041;28;20083;-81
2023/03/11 04:32:16;;;;;;;7.07;2.05;;;-2.50;99.90;;;;;;4950831;28;20120;-81
2023/03/11 04:34:41;;;;;;;7.53;1.98;;;-2.50;99.90;;;;;;4962478;28;20041;-81
2023/03/11 04:37:07;;;;;;;10.57;2.67;;;-2.60;99.90;;;;;;4973558;28;20133;-81
2023/03/11 04:39:33;;;;;;;5.05;2.00;;;-2.60;99.90;;;;;;4975374;28;20109;-81
2023/03/11 04:41:59;;;;;;;4.90;2.10;;;-2.60;99.90;;;;;;4991438;28;20150;-81
2023/03/11 04:44:24;;;;;;;8.73;1.92;;;-2.70;99.90;;;;;;4992442;28;20041;-81
2023/03/11 04:46:50;;;;;;;3.85;1.67;;;-2.70;99.90;;;;;;4990146;28;20092;-81
2023/03/11 04:49:16;;;;;;;6.32;2.00;;;-2.70;99.90;;;;;;4985945;28;20044;-81
2023/03/11 04:51:42;;;;;;;3.45;1.80;;;-2.70;99.90;;;;;;4988275;28;20095;-81
2023/03/11 04:54:07;;;;;;;4.70;1.75;;;-2.80;99.90;;;;;;4989192;28;20235;-81
2023/03/11 04:56:33;;;;;;;2.90;1.50;;;-2.80;99.90;;;;;;4973690;28;20096;-81
2023/03/11 04:58:59;;;;;;;6.47;1.98;;;-2.80;99.90;;;;;;4988639;28;20040;-81
2023/03/11 05:01:25;;;;;;;8.13;2.45;;;-2.90;99.90;;;;;;4990196;28;20033;-81
2023/03/11 05:03:51;;;;;;;4.10;1.77;;;-2.90;99.90;;;;;;4976095;28;20483;-81
2023/03/11 05:06:17;;;;;;;7.15;2.10;;;-2.60;99.90;;;;;;4990598;28;20065;-81
2023/03/11 05:08:42;;;;;;;5.15;1.95;;;-2.90;99.90;;;;;;4958295;28;20039;-81
2023/03/11 05:11:08;;;;;;;5.30;1.88;;;-2.90;99.90;;;;;;4974261;28;20038;-81
2023/03/11 05:13:34;;;;;;;6.25;2.00;;;-3.00;99.90;;;;;;4969823;28;20494;-81
2023/03/11 05:16:00;;;;;;;4.88;2.25;;;-3.00;99.90;;;;;;4985027;28;20069;-81
2023/03/11 05:18:25;;;;;;;6.07;2.45;;;-3.00;99.90;;;;;;4986529;28;20037;-81
2023/03/11 05:20:52;;;;;;;4.25;2.00;;;-2.90;99.90;;;;;;4939532;28;20038;-81
2023/03/11 05:23:18;;;;;;;5.07;2.10;;;-3.00;99.90;;;;;;4973364;28;20179;-81
2023/03/11 05:25:44;;;;;;;4.85;2.35;;;-3.10;99.90;;;;;;4978758;28;20544;-81
2023/03/11 05:28:10;;;;;;;6.35;3.00;;;-3.10;99.90;;;;;;4988770;28;20058;-81
2023/03/11 05:30:35;;;;;;;10.00;2.88;;;-3.10;99.90;;;;;;4956147;28;20049;-80
2023/03/11 05:33:01;;;;;;;4.95;2.40;;;-3.10;99.90;;;;;;5005699;28;20073;-81
2023/03/11 05:35:27;;;;;;;4.40;2.10;;;-3.20;99.90;;;;;;4969984;28;20046;-81
2023/03/11 05:37:53;;;;;;;4.40;1.90;;;-3.20;99.90;;;;;;4991055;28;20049;-81
2023/03/11 05:40:20;;;;;;;6.82;2.35;;;-3.20;99.90;;;;;;4969200;28;20042;-81
2023/03/11 05:42:45;;;;;;;5.85;2.38;;;-3.20;99.90;;;;;;4975108;28;20091;-80
2023/03/11 05:45:11;;;;;;;3.17;2.25;;;-3.20;99.90;;;;;;4957376;28;20066;-81
2023/03/11 05:47:37;;;;;;;4.97;2.70;;;-3.30;99.90;;;;;;4975632;28;20495;-81
2023/03/11 05:50:03;;;;;;;6.30;2.60;;;-3.30;99.90;;;;;;4988140;28;20034;-81
2023/03/11 05:52:31;;;;;;;7.03;3.00;;;-3.30;99.90;;;;;;4941433;28;20038;-81
2023/03/11 05:54:57;;;;;;;6.30;2.67;;;-3.30;99.90;;;;;;4958274;28;20049;-81
2023/03/11 05:57:22;;;;;;;6.68;2.95;;;-3.30;99.90;;;;;;4973685;28;20038;-80
2023/03/11 05:59:48;;;;;;;6.25;2.60;;;-3.30;99.90;;;;;;4988774;28;20077;-81
2023/03/11 06:02:14;;;;;;;6.43;2.28;;;-2.40;99.90;;;;;;4966916;28;20035;-80
2023/03/11 06:04:40;;;;;;;8.55;2.65;;;-3.30;99.90;;;;;;4986795;28;20034;-80
2023/03/11 06:07:05;;;;;;;6.18;2.00;;;-3.30;99.90;;;;;;4988271;28;20038;-80
2023/03/11 06:09:32;;;;;;;5.93;2.55;;;-3.40;99.90;;;;;;4961343;28;20196;-81
2023/03/11 06:11:58;;;;;;;4.38;2.10;;;-3.40;99.90;;;;;;5008645;28;20038;-81
2023/03/11 06:14:24;;;;;;;7.57;2.10;;;-3.40;99.90;;;;;;4991282;28;20484;-81
2023/03/11 06:16:49;;;;;;;5.82;2.00;;;-3.40;99.90;;;;;;4957156;28;20046;-78
2023/03/11 06:19:15;;;;;;;4.38;1.70;;;-3.40;99.90;;;;;;4987978;28;20034;-78
2023/03/11 06:21:41;;;;;;;8.75;2.15;;;-3.40;99.90;;;;;;4972739;28;20169;-78
2023/03/11 06:24:07;;;;;;;4.55;1.98;;;-3.40;99.90;;;;;;4974729;28;20458;-78
2023/03/11 06:26:32;;;;;;;5.20;2.17;;;-3.50;99.90;;;;;;4992799;28;20046;-78
2023/03/11 06:28:58;;;;;;;6.78;2.30;;;-3.40;99.90;;;;;;4993701;28;20068;-78
2023/03/11 06:31:26;;;;;;;5.65;2.42;;;-2.70;99.90;;;;;;4978224;28;20042;-78
2023/03/11 06:33:54;;;;;;;4.18;2.10;;;-3.30;99.90;;;;;;4991466;28;20046;-80
2023/03/11 06:36:21;;;;;;;3.55;1.88;;;-3.40;99.90;;;;;;4987355;28;20045;-79
2023/03/11 06:38:48;;;;;;;5.43;2.22;;;-3.30;99.90;;;;;;4992266;28;20387;-79
2023/03/11 06:41:15;;;;;;;4.10;2.05;;;-3.30;99.90;;;;;;4991333;28;20123;-78
2023/03/11 06:43:41;;;;;;;10.15;2.60;;;-3.30;99.90;;;;;;4997164;28;20511;-79
2023/03/11 06:46:15;;;;;;;6.03;2.00;;;-3.20;99.90;;;;;;4959849;28;20057;-80
2023/03/11 06:48:41;;;;;;;6.10;2.15;;;-3.20;99.90;;;;;;4992365;28;20073;-79
2023/03/11 06:51:08;;;;;;;3.67;2.60;;;-3.10;99.90;;;;;;4991289;28;20460;-79
2023/03/11 06:53:34;;;;;;;6.65;2.30;;;-3.10;99.90;;;;;;4996975;28;20049;-79
2023/03/11 06:56:04;;;;;;;7.35;2.47;;;-3.10;99.90;;;;;;4997282;28;20398;-79
2023/03/11 06:58:31;;;;;;;5.18;2.28;;;-3.00;99.90;;;;;;4992070;28;20483;-79
2023/03/11 07:01:01;;;;;;;3.65;2.15;;;-3.00;99.90;;;;;;4978509;28;20042;-79
2023/03/11 07:03:28;;;;;;;5.60;2.00;;;-2.10;99.90;;;;;;4960021;28;20476;-79
2023/03/11 07:05:53;;;;;;;3.42;2.00;;;-2.90;99.90;;;;;;4990537;28;20041;-79
2023/03/11 07:08:19;;;;;;;7.40;2.35;;;-2.90;99.90;;;;;;4961791;28;20038;-79
2023/03/11 07:10:45;;;;;;;13.45;2.50;;;-2.80;99.90;;;;;;4976839;28;20042;-78
2023/03/11 07:13:11;;;;;;;3.88;1.75;;;-2.80;99.90;;;;;;4989146;28;20047;-79
2023/03/11 07:15:37;;;;;;;5.85;2.38;;;-2.70;99.90;;;;;;4995995;28;20046;-79
2023/03/11 07:18:03;;;;;;;6.03;2.08;;;-2.70;99.90;;;;;;4990990;28;20039;-79
2023/03/11 07:20:28;;;;;;;3.45;2.05;;;-2.60;99.90;;;;;;4991542;28;20038;-79
2023/03/11 07:22:54;;;;;;;3.92;1.98;;;-2.20;99.90;;;;;;4974091;28;20402;-78
2023/03/11 07:25:20;;;;;;;7.18;2.20;;;-2.60;99.90;;;;;;4974106;28;20034;-79
2023/03/11 07:27:46;;;;;;;8.93;2.40;;;-2.50;99.90;;;;;;4977166;28;20476;-79
2023/03/11 07:30:12;;;;;;;2.95;2.10;;;-2.40;99.90;;;;;;4991488;28;20045;-79
2023/03/11 07:32:37;;;;;;;3.28;1.90;;;-2.40;99.90;;;;;;4995948;28;20072;-79
2023/03/11 07:35:04;;;;;;;4.25;2.33;;;-2.30;99.90;;;;;;4959537;28;20361;-79
2023/03/11 07:37:29;;;;;;;5.82;2.20;;;-2.20;99.90;;;;;;4972143;28;20403;-79
2023/03/11 07:39:55;;;;;;;5.63;3.00;;;-2.20;99.90;;;;;;4991240;28;20039;-78
2023/03/11 07:42:21;;;;;;;4.53;2.30;;;-2.10;99.90;;;;;;4991449;28;20036;-78
2023/03/11 07:44:50;;;;;;;5.85;2.03;;;-2.00;99.90;;;;;;4987708;28;20054;-78
2023/03/11 07:47:16;;;;;;;4.30;2.17;;;-1.60;99.90;;;;;;4989092;28;20042;-79
2023/03/11 07:49:41;;;;;;;3.58;1.63;;;-1.40;99.90;;;;;;4977468;28;20041;-79
2023/03/11 07:52:07;;;;;;;2.65;1.80;;;-0.70;99.90;;;;;;4978763;28;20038;-80
2023/03/11 07:54:33;;;;;;;6.07;2.55;;;-0.40;99.90;;;;;;5007940;28;20061;-79
2023/03/11 07:56:59;;;;;;;7.50;2.78;;;0.00;99.90;;;;;;4999914;28;20035;-80
2023/03/11 07:59:25;;;;;;;7.03;2.65;;;0.10;99.90;;;;;;5001307;28;20066;-80
2023/03/11 08:01:50;;;;;;;8.05;2.53;;;0.40;99.90;;;;;;4996669;28;20064;-80
2023/03/11 08:04:16;;;;;;;5.38;2.00;;;0.50;99.90;;;;;;4956897;28;20126;-80
2023/03/11 08:06:44;;;;;;;4.15;2.08;;;0.50;99.90;;;;;;4980896;28;21420;-80
2023/03/11 08:09:11;;;;;;;6.43;2.30;;;0.70;99.90;;;;;;5013045;28;20038;-80
2023/03/11 08:11:37;;;;;;;13.63;1.55;;;1.00;99.90;;;;;;4990083;28;20489;-80
2023/03/11 08:14:03;;;;;;;2.28;1.55;;;1.30;99.90;;;;;;4975122;28;20171;-78
2023/03/11 08:16:30;;;;;;;6.85;2.13;;;1.50;99.90;;;;;;4976820;28;20038;-80
2023/03/11 08:18:56;;;;;;;9.43;3.15;;;2.50;99.90;;;;;;4972090;28;20046;-81
2023/03/11 08:21:25;;;;;;;9.18;1.73;;;1.90;99.90;;;;;;5004695;28;20035;-78
2023/03/11 08:23:51;;;;;;;3.13;1.42;;;2.20;99.90;;;;;;4989367;28;20041;-79
2023/03/11 08:26:19;;;;;;;3.75;1.52;;;2.30;99.90;;;;;;5001989;28;20034;-77
2023/03/11 08:28:48;;;;;;;2.22;1.77;;;2.40;99.90;;;;;;5001839;28;20033;-78
2023/03/11 08:31:19;;;;;;;7.07;1.83;;;2.40;99.90;;;;;;4987469;28;20068;-80
2023/03/11 08:33:48;;;;;;;13.77;2.28;;;3.00;99.90;;;;;;4987061;28;20043;-83
2023/03/11 08:36:15;;;;;;;31.85;4.55;;;3.50;99.90;;;;;;5020413;28;20053;-81
2023/03/11 08:38:41;;;;;;;62.42;6.85;;;4.00;99.90;;;;;;4981647;28;20038;-82
2023/03/11 08:41:07;;;;;;;5.00;1.83;;;4.60;99.90;;;;;;4978730;28;20403;-82
2023/03/11 08:43:32;;;;;;;44.10;4.82;;;4.80;99.90;;;;;;4996585;28;20038;-81
2023/03/11 08:46:03;;;;;;;8.50;2.45;;;4.90;99.90;;;;;;4993903;28;20100;-81
2023/03/11 08:48:29;;;;;;;8.65;2.60;;;5.10;99.90;;;;;;4988119;28;20097;-82
2023/03/11 08:50:55;;;;;;;14.90;2.78;;;5.20;99.90;;;;;;4977972;28;20039;-82
2023/03/11 08:53:21;;;;;;;225.50;22.40;;;6.00;99.90;;;;;;4973007;28;20069;-82
2023/03/11 08:55:49;;;;;;;6.00;2.00;;;6.10;99.90;;;;;;4990444;28;20042;-81
2023/03/11 08:58:14;;;;;;;8.32;1.92;;;6.50;99.90;;;;;;4974050;28;20039;-81
2023/03/11 09:00:40;;;;;;;279.15;31.48;;;6.90;99.90;;;;;;4973665;28;20096;-82
2023/03/11 09:03:06;;;;;;;5.78;2.20;;;7.20;99.90;;;;;;4973386;28;20595;-81
2023/03/11 09:05:31;;;;;;;79.63;8.43;;;7.70;99.90;;;;;;4991235;28;20128;-81
2023/03/11 09:07:57;;;;;;;167.75;13.50;;;7.80;99.90;;;;;;4975560;28;20034;-81
2023/03/11 09:10:23;;;;;;;225.05;22.08;;;8.30;99.90;;;;;;4971278;28;20046;-81
2023/03/11 09:12:48;;;;;;;301.90;25.65;;;8.50;99.90;;;;;;4972987;28;20050;-82
2023/03/11 09:15:14;;;;;;;655.35;63.15;;;8.50;99.90;;;;;;4984469;28;20100;-82
2023/03/11 09:17:40;;;;;;;56.13;6.32;;;8.40;99.90;;;;;;4974027;28;20488;-81
2023/03/11 09:20:06;;;;;;;19.33;3.17;;;9.20;99.90;;;;;;4977673;28;20054;-81
2023/03/11 09:22:32;;;;;;;276.25;34.78;;;9.40;99.90;;;;;;4972055;28;20508;-82
2023/03/11 09:24:57;;;;;;;283.20;31.13;;;9.60;99.90;;;;;;4971951;28;20070;-81
2023/03/11 09:27:23;;;;;;;338.10;35.90;;;10.00;99.90;;;;;;4978015;28;20069;-82
2023/03/11 09:29:49;;;;;;;133.15;9.55;;;10.40;99.90;;;;;;4976271;28;20129;-82
2023/03/11 09:32:15;;;;;;;293.75;28.63;;;10.80;99.90;;;;;;4974980;28;20049;-78
2023/03/11 09:34:41;;;;;;;16.80;3.45;;;10.70;99.90;;;;;;4970642;28;20506;-77
2023/03/11 09:37:07;;;;;;;677.92;71.05;;;10.90;99.90;;;;;;4985354;28;20031;-78
2023/03/11 09:39:33;;;;;;;44.72;5.72;;;11.20;99.90;;;;;;4990293;28;20057;-78
2023/03/11 09:42:14;;;;;;;51.50;5.68;;;11.20;99.90;;;;;;4971749;28;20408;-78
2023/03/11 09:44:51;;;;;;;144.93;11.93;;;11.30;99.90;;;;;;5007671;28;21005;-78
2023/03/11 09:47:17;;;;;;;6.85;1.83;;;10.80;99.90;;;;;;4976249;28;20565;-78
2023/03/11 09:50:03;;;;;;;66.40;5.65;;;10.70;99.90;;;;;;4973459;28;20038;-78
2023/03/11 09:52:38;;;;;;;25.27;4.20;;;11.20;99.90;;;;;;4990636;28;20042;-78
2023/03/11 09:55:11;;;;;;;6.43;2.05;;;11.40;99.90;;;;;;4986233;28;20500;-78
2023/03/11 09:57:38;;;;;;;181.85;18.48;;;11.30;99.90;;;;;;4991293;28;20039;-79
2023/03/11 10:00:05;;;;;;;19.60;3.10;;;11.90;99.90;;;;;;4972016;28;20076;-79
2023/03/11 10:02:35;;;;;;;199.57;17.77;;;12.00;99.90;;;;;;4972353;28;20035;-78
2023/03/11 10:05:11;;;;;;;59.78;5.93;;;12.10;99.90;;;;;;4990761;28;20038;-78
2023/03/11 10:07:40;;;;;;;168.02;15.18;;;12.00;99.20;;;;;;4988072;28;20038;-78
2023/03/11 10:10:12;;;;;;;3.78;1.70;;;11.90;99.90;;;;;;5003853;28;20492;-79
2023/03/11 10:13:14;;;;;;;286.23;22.95;;;11.70;98.80;;;;;;5000267;28;20432;-79
2023/03/11 10:15:47;;;;;;;12.10;2.10;;;11.80;98.90;;;;;;4990950;28;20777;-78
2023/03/11 10:18:46;;;;;;;40.75;4.13;;;11.00;99.80;;;;;;4988984;28;20482;-78
2023/03/11 10:21:23;;;;;;;8.13;1.88;;;10.90;99.50;;;;;;4984656;28;20049;-78
2023/03/11 10:24:08;;;;;;;5.53;1.80;;;10.90;99.90;;;;;;5000210;28;20034;-77
2023/03/11 10:26:42;;;;;;;5.47;1.55;;;10.70;99.80;;;;;;4973539;28;20538;-78
2023/03/11 10:29:23;;;;;;;41.97;4.15;;;10.90;97.90;;;;;;4993687;28;20049;-78
2023/03/11 10:32:16;;;;;;;6.05;1.63;;;10.90;99.90;;;;;;4972544;28;20066;-78
2023/03/11 10:34:56;;;;;;;8.02;1.85;;;11.20;99.90;;;;;;4982318;28;20069;-79
2023/03/11 10:37:51;;;;;;;8.27;2.30;;;11.60;99.90;;;;;;4987736;28;20033;-79
2023/03/11 10:40:25;;;;;;;46.50;5.15;;;10.70;98.30;;;;;;4976782;28;20042;-79
2023/03/11 10:42:54;;;;;;;4.63;1.83;;;10.60;99.90;;;;;;4991458;28;20038;-79
2023/03/11 10:45:22;;;;;;;12.45;2.50;;;10.40;99.90;;;;;;4989178;28;20050;-79
2023/03/11 10:47:48;;;;;;;3.10;1.92;;;9.30;99.50;;;;;;4967492;28;20180;-79
2023/03/11 10:50:16;;;;;;;2.90;1.80;;;8.60;99.70;;;;;;5002690;28;20041;-79
2023/03/11 10:53:13;;;;;;;6.18;1.98;;;8.60;99.90;;;;;;4987936;28;20053;-79
2023/03/11 10:55:51;;;;;;;6.30;2.35;;;8.90;99.70;;;;;;4987672;28;20048;-79
2023/03/11 10:58:28;;;;;;;6.35;2.38;;;9.50;99.90;;;;;;4987389;28;20228;-79
2023/03/11 11:01:14;;;;;;;6.38;2.30;;;9.40;99.60;;;;;;4987582;28;20123;-79
2023/03/11 11:03:45;;;;;;;11.30;2.47;;;9.80;99.70;;;;;;4958137;28;20866;-79
2023/03/11 11:06:20;;;;;;;4.95;2.22;;;9.50;98.80;;;;;;4961253;28;20045;-79
2023/03/11 11:08:45;;;;;;;4.40;2.00;;;9.40;99.00;;;;;;4975823;28;20767;-80
2023/03/11 11:11:23;;;;;;;2.28;1.60;;;9.50;99.90;;;;;;4975251;28;20046;-79
2023/03/11 11:13:56;;;;;;;4.50;1.80;;;9.90;99.20;;;;;;4977494;28;20520;-80
2023/03/11 11:16:22;;;;;;;5.80;1.98;;;10.20;99.10;;;;;;4935920;28;20518;-79
2023/03/11 11:19:18;;;;;;;5.18;1.70;;;10.30;97.80;;;;;;4976592;28;20074;-79
2023/03/11 11:21:49;;;;;;;2.97;1.52;;;10.70;98.60;;;;;;4971752;28;20101;-79
2023/03/11 11:24:30;;;;;;;5.10;1.70;;;10.60;96.50;;;;;;4960518;28;20039;-79
2023/03/11 11:27:24;;;;;;;2.72;1.42;;;11.00;98.60;;;;;;4977669;28;20038;-79
2023/03/11 11:30:08;;;;;;;1.88;1.50;;;10.50;97.60;;;;;;4962159;28;20056;-79
2023/03/11 11:32:35;;;;;;;5.90;1.60;;;10.00;97.00;;;;;;4977855;28;20495;-79
2023/03/11 11:35:06;;;;;;;5.80;1.55;;;9.50;98.60;;;;;;4977532;28;20046;-79
2023/03/11 11:37:35;;;;;;;6.68;1.70;;;9.20;98.00;;;;;;4977962;28;20079;-79
2023/03/11 11:40:29;;;;;;;4.07;1.70;;;9.10;99.90;;;;;;4961538;28;20074;-80
2023/03/11 11:43:02;;;;;;;4.65;1.63;;;8.50;99.70;;;;;;4977424;28;20055;-79
2023/03/11 11:45:36;;;;;;;5.75;1.60;;;8.00;99.80;;;;;;4960644;28;20057;-80
2023/03/11 11:48:24;;;;;;;4.50;1.48;;;7.70;99.90;;;;;;4976525;28;20042;-81
2023/03/11 11:51:00;;;;;;;6.82;1.65;;;7.00;99.90;;;;;;4978206;28;20486;-79
2023/03/11 11:53:48;;;;;;;4.18;1.50;;;6.80;99.90;;;;;;4961207;28;20141;-81
2023/03/11 11:56:14;;;;;;;5.10;1.40;;;6.50;99.90;;;;;;4975141;28;20038;-81
2023/03/11 11:58:40;;;;;;;4.25;1.40;;;6.40;99.90;;;;;;4958643;28;20600;-77
2023/03/11 12:01:21;;;;;;;2.83;1.83;;;6.30;99.90;;;;;;4944043;28;20042;-76
2023/03/11 12:04:10;;;;;;;4.82;1.50;;;6.40;99.90;;;;;;4977659;28;20512;-75
2023/03/11 12:06:38;;;;;;;4.05;1.13;;;6.40;99.90;;;;;;4953875;28;20135;-76
2023/03/11 12:09:22;;;;;;;6.20;1.38;;;6.50;99.90;;;;;;4980024;28;20049;-76
2023/03/11 12:12:16;;;;;;;3.42;1.58;;;6.50;99.90;;;;;;4981139;28;20547;-75
2023/03/11 12:15:01;;;;;;;3.08;1.48;;;6.50;99.90;;;;;;4981376;28;20034;-76
2023/03/11 12:17:30;;;;;;;3.83;1.27;;;6.40;99.90;;;;;;4979578;28;20188;-76
2023/03/11 12:20:15;;;;;;;6.93;1.98;;;6.40;99.90;;;;;;4980444;28;20042;-75
2023/03/11 12:23:19;;;;;;;5.45;1.80;;;6.40;99.90;;;;;;4975319;28;20410;-75
2023/03/11 12:26:12;;;;;;;6.40;1.77;;;6.20;99.90;;;;;;4966690;28;20088;-75
2023/03/11 12:28:59;;;;;;;2.17;1.42;;;6.20;99.90;;;;;;4979618;28;20046;-76
2023/03/11 12:31:28;;;;;;;2.38;1.25;;;6.30;99.90;;;;;;4964566;28;20046;-76
2023/03/11 12:34:02;;;;;;;3.88;1.52;;;6.40;99.90;;;;;;4979233;28;20053;-76
2023/03/11 12:36:31;;;;;;;4.32;1.70;;;6.20;99.90;;;;;;4962351;28;20177;-76
2023/03/11 12:38:58;;;;;;;4.18;1.02;;;6.40;99.90;;;;;;4979042;28;20041;-76
2023/03/11 12:41:35;;;;;;;4.72;1.10;;;6.30;99.90;;;;;;4964341;28;20046;-76
2023/03/11 12:44:24;;;;;;;3.83;1.45;;;6.30;99.90;;;;;;4980037;28;20467;-76
2023/03/11 12:46:53;;;;;;;1.80;1.48;;;6.50;99.90;;;;;;4978173;28;20798;-76
2023/03/11 12:49:24;;;;;;;5.00;1.30;;;6.80;99.90;;;;;;4977930;28;20234;-76
2023/03/11 12:52:15;;;;;;;3.33;1.17;;;7.00;99.90;;;;;;4992474;28;20050;-78
2023/03/11 12:54:42;;;;;;;2.50;0.85;;;7.00;99.90;;;;;;4960779;28;20522;-78
2023/03/11 12:57:17;;;;;;;3.63;1.00;;;7.00;99.90;;;;;;4979100;28;20478;-78
2023/03/11 13:00:16;;;;;;;6.40;1.27;;;6.80;99.90;;;;;;4978753;28;20046;-78